sensor_id;sensor_type;location;lat;lon;timestamp;temperature;humidity
2855;DHT22;1435;49.472;10.940;2023-09-18T00:04:36;19.80;99.90
2855;DHT22;1435;49.472;10.940;2023-09-18T00:09:39;19.70;99.90
2855;DHT22;1435;49.472;10.940;2023-09-18T00:14:41;19.70;99.90
2855;DHT22;1435;49.472;10.940;2023-09-18T00:19:43;19.60;99.90
2855;DHT22;1435;49.472;10.940;2023-09-18T00:24:46;19.50;99.90
2855;DHT22;1435;49.472;10.940;2023-09-18T00:29:47;19.50;99.90
2855;DHT22;1435;49.472;10.940;2023-09-18T00:34:49;19.40;99.90
2855;DHT22;1435;49.472;10.940;2023-09-18T00:39:52;19.30;99.90
2855;DHT22;1435;49.472;10.940;2023-09-18T00:44:54;19.20;99.90
2855;DHT22;1435;49.472;10.940;2023-09-18T00:49:56;19.20;99.90
2855;DHT22;1435;49.472;10.940;2023-09-18T00:55:00;19.10;99.90
2855;DHT22;1435;49.472;10.940;2023-09-18T01:00:02;19.00;99.90
2855;DHT22;1435;49.472;10.940;2023-09-18T01:05:06;19.00;99.90
2855;DHT22;1435;49.472;10.940;2023-09-18T01:10:09;18.90;99.90
2855;DHT22;1435;49.472;10.940;2023-09-18T01:15:37;18.80;99.90
2855;DHT22;1435;49.472;10.940;2023-09-18T01:20:43;18.80;99.90
2855;DHT22;1435;49.472;10.940;2023-09-18T01:25:46;18.70;99.90
2855;DHT22;1435;49.472;10.940;2023-09-18T01:30:48;18.70;99.90
2855;DHT22;1435;49.472;10.940;2023-09-18T01:35:50;18.70;99.90
2855;DHT22;1435;49.472;10.940;2023-09-18T01:40:57;18.60;99.90
2855;DHT22;1435;49.472;10.940;2023-09-18T01:45:58;18.50;99.90
2855;DHT22;1435;49.472;10.940;2023-09-18T01:51:00;18.50;99.90
2855;DHT22;1435;49.472;10.940;2023-09-18T01:56:03;18.50;99.90
2855;DHT22;1435;49.472;10.940;2023-09-18T02:01:05;18.40;99.90
2855;DHT22;1435;49.472;10.940;2023-09-18T02:06:07;18.40;99.90
2855;DHT22;1435;49.472;10.940;2023-09-18T02:11:10;18.30;99.90
2855;DHT22;1435;49.472;10.940;2023-09-18T02:16:12;18.30;99.90
2855;DHT22;1435;49.472;10.940;2023-09-18T02:21:18;18.20;99.90
2855;DHT22;1435;49.472;10.940;2023-09-18T02:26:23;18.20;99.90
2855;DHT22;1435;49.472;10.940;2023-09-18T02:31:25;18.20;99.90
2855;DHT22;1435;49.472;10.940;2023-09-18T02:36:27;18.20;99.90
2855;DHT22;1435;49.472;10.940;2023-09-18T02:41:30;18.20;99.90
2855;DHT22;1435;49.472;10.940;2023-09-18T02:46:32;18.20;99.90
2855;DHT22;1435;49.472;10.940;2023-09-18T02:51:34;18.20;99.90
2855;DHT22;1435;49.472;10.940;2023-09-18T02:56:37;18.20;99.90
2855;DHT22;1435;49.472;10.940;2023-09-18T03:01:39;18.20;99.90
2855;DHT22;1435;49.472;10.940;2023-09-18T03:06:40;18.20;99.90
2855;DHT22;1435;49.472;10.940;2023-09-18T03:11:43;18.20;99.90
2855;DHT22;1435;49.472;10.940;2023-09-18T03:16:45;18.20;99.90
2855;DHT22;1435;49.472;10.940;2023-09-18T03:21:47;18.10;99.90
2855;DHT22;1435;49.472;10.940;2023-09-18T03:26:50;18.10;99.90
2855;DHT22;1435;49.472;10.940;2023-09-18T03:31:52;18.10;99.90
2855;DHT22;1435;49.472;10.940;2023-09-18T03:36:53;18.00;99.90
2855;DHT22;1435;49.472;10.940;2023-09-18T03:41:56;17.90;99.90
2855;DHT22;1435;49.472;10.940;2023-09-18T03:46:58;17.90;99.90
2855;DHT22;1435;49.472;10.940;2023-09-18T03:52:00;17.90;99.90
2855;DHT22;1435;49.472;10.940;2023-09-18T03:57:03;17.90;99.90
2855;DHT22;1435;49.472;10.940;2023-09-18T04:02:05;17.80;99.90
2855;DHT22;1435;49.472;10.940;2023-09-18T04:07:07;17.90;99.90
2855;DHT22;1435;49.472;10.940;2023-09-18T04:12:10;17.90;99.90
2855;DHT22;1435;49.472;10.940;2023-09-18T04:17:12;17.90;99.90
2855;DHT22;1435;49.472;10.940;2023-09-18T04:22:14;17.90;99.90
2855;DHT22;1435;49.472;10.940;2023-09-18T04:27:17;17.90;99.90
2855;DHT22;1435;49.472;10.940;2023-09-18T04:32:19;17.90;99.90
2855;DHT22;1435;49.472;10.940;2023-09-18T04:37:20;18.00;99.90
2855;DHT22;1435;49.472;10.940;2023-09-18T04:42:24;18.00;99.90
2855;DHT22;1435;49.472;10.940;2023-09-18T04:47:25;18.00;99.90
2855;DHT22;1435;49.472;10.940;2023-09-18T04:52:27;18.10;99.90
2855;DHT22;1435;49.472;10.940;2023-09-18T04:57:30;18.00;99.90
2855;DHT22;1435;49.472;10.940;2023-09-18T05:02:32;18.10;99.90
2855;DHT22;1435;49.472;10.940;2023-09-18T05:07:34;18.10;99.90
2855;DHT22;1435;49.472;10.940;2023-09-18T05:12:39;18.10;99.90
2855;DHT22;1435;49.472;10.940;2023-09-18T05:17:44;18.20;99.90
2855;DHT22;1435;49.472;10.940;2023-09-18T05:22:47;18.30;99.90
2855;DHT22;1435;49.472;10.940;2023-09-18T05:27:50;18.30;99.90
2855;DHT22;1435;49.472;10.940;2023-09-18T05:32:56;18.30;99.90
2855;DHT22;1435;49.472;10.940;2023-09-18T05:37:58;18.40;99.90
2855;DHT22;1435;49.472;10.940;2023-09-18T05:43:01;18.40;99.90
2855;DHT22;1435;49.472;10.940;2023-09-18T05:48:04;18.40;99.90
2855;DHT22;1435;49.472;10.940;2023-09-18T05:53:06;18.40;99.90
2855;DHT22;1435;49.472;10.940;2023-09-18T05:58:09;18.50;99.90
2855;DHT22;1435;49.472;10.940;2023-09-18T06:03:10;18.50;99.90
2855;DHT22;1435;49.472;10.940;2023-09-18T06:08:12;18.50;99.90
2855;DHT22;1435;49.472;10.940;2023-09-18T06:13:15;18.50;99.90
2855;DHT22;1435;49.472;10.940;2023-09-18T06:18:17;18.60;99.90
2855;DHT22;1435;49.472;10.940;2023-09-18T06:23:20;18.60;99.90
2855;DHT22;1435;49.472;10.940;2023-09-18T06:28:24;18.60;99.90
2855;DHT22;1435;49.472;10.940;2023-09-18T06:33:25;18.60;99.90
2855;DHT22;1435;49.472;10.940;2023-09-18T06:38:27;18.70;99.90
2855;DHT22;1435;49.472;10.940;2023-09-18T06:43:30;18.70;99.90
2855;DHT22;1435;49.472;10.940;2023-09-18T06:48:32;18.70;99.90
2855;DHT22;1435;49.472;10.940;2023-09-18T06:53:33;18.80;99.90
2855;DHT22;1435;49.472;10.940;2023-09-18T06:58:37;18.80;99.90
2855;DHT22;1435;49.472;10.940;2023-09-18T07:03:38;18.80;99.90
2855;DHT22;1435;49.472;10.940;2023-09-18T07:08:41;18.80;99.90
2855;DHT22;1435;49.472;10.940;2023-09-18T07:13:44;18.80;99.90
2855;DHT22;1435;49.472;10.940;2023-09-18T07:18:46;18.90;99.90
2855;DHT22;1435;49.472;10.940;2023-09-18T07:23:48;19.00;99.90
2855;DHT22;1435;49.472;10.940;2023-09-18T07:28:52;19.20;99.90
2855;DHT22;1435;49.472;10.940;2023-09-18T07:33:53;19.30;99.90
2855;DHT22;1435;49.472;10.940;2023-09-18T07:38:55;19.50;99.90
2855;DHT22;1435;49.472;10.940;2023-09-18T07:43:59;19.60;99.90
2855;DHT22;1435;49.472;10.940;2023-09-18T07:49:01;19.70;99.90
2855;DHT22;1435;49.472;10.940;2023-09-18T07:54:03;19.80;99.90
2855;DHT22;1435;49.472;10.940;2023-09-18T07:59:06;19.90;99.90
2855;DHT22;1435;49.472;10.940;2023-09-18T08:04:08;20.10;99.90
2855;DHT22;1435;49.472;10.940;2023-09-18T08:09:09;20.20;99.90
2855;DHT22;1435;49.472;10.940;2023-09-18T08:14:15;20.30;99.90
2855;DHT22;1435;49.472;10.940;2023-09-18T08:19:17;20.50;99.90
2855;DHT22;1435;49.472;10.940;2023-09-18T08:24:19;20.60;99.90
2855;DHT22;1435;49.472;10.940;2023-09-18T08:29:22;20.70;99.90
2855;DHT22;1435;49.472;10.940;2023-09-18T08:34:24;20.90;99.90
2855;DHT22;1435;49.472;10.940;2023-09-18T08:39:26;20.90;99.90
2855;DHT22;1435;49.472;10.940;2023-09-18T08:44:31;21.00;99.90
2855;DHT22;1435;49.472;10.940;2023-09-18T08:49:34;21.10;99.90
2855;DHT22;1435;49.472;10.940;2023-09-18T08:54:36;21.20;99.90
2855;DHT22;1435;49.472;10.940;2023-09-18T08:59:39;21.30;99.90
2855;DHT22;1435;49.472;10.940;2023-09-18T09:04:41;21.40;99.90
2855;DHT22;1435;49.472;10.940;2023-09-18T09:09:43;21.60;99.90
2855;DHT22;1435;49.472;10.940;2023-09-18T09:15:02;21.70;99.90
2855;DHT22;1435;49.472;10.940;2023-09-18T09:20:11;21.80;99.90
2855;DHT22;1435;49.472;10.940;2023-09-18T09:25:24;21.90;99.90
2855;DHT22;1435;49.472;10.940;2023-09-18T09:30:28;22.00;99.90
2855;DHT22;1435;49.472;10.940;2023-09-18T09:35:31;22.20;99.90
2855;DHT22;1435;49.472;10.940;2023-09-18T09:40:34;22.30;99.90
2855;DHT22;1435;49.472;10.940;2023-09-18T09:45:40;22.50;99.90
2855;DHT22;1435;49.472;10.940;2023-09-18T09:50:47;22.70;99.90
2855;DHT22;1435;49.472;10.940;2023-09-18T09:55:54;22.80;99.90
2855;DHT22;1435;49.472;10.940;2023-09-18T10:00:59;22.80;99.90
2855;DHT22;1435;49.472;10.940;2023-09-18T10:06:04;22.90;99.90
2855;DHT22;1435;49.472;10.940;2023-09-18T10:11:08;22.90;99.90
2855;DHT22;1435;49.472;10.940;2023-09-18T10:16:14;23.00;99.90
2855;DHT22;1435;49.472;10.940;2023-09-18T10:21:24;23.00;99.90
2855;DHT22;1435;49.472;10.940;2023-09-18T10:26:33;23.00;99.90
2855;DHT22;1435;49.472;10.940;2023-09-18T10:31:40;23.10;99.90
2855;DHT22;1435;49.472;10.940;2023-09-18T10:36:43;23.20;99.90
2855;DHT22;1435;49.472;10.940;2023-09-18T10:41:47;23.20;99.90
2855;DHT22;1435;49.472;10.940;2023-09-18T10:46:51;23.30;99.90
2855;DHT22;1435;49.472;10.940;2023-09-18T10:51:55;23.30;99.90
2855;DHT22;1435;49.472;10.940;2023-09-18T10:56:57;23.30;99.90
2855;DHT22;1435;49.472;10.940;2023-09-18T11:02:04;23.30;99.90
2855;DHT22;1435;49.472;10.940;2023-09-18T11:07:06;23.30;99.90
2855;DHT22;1435;49.472;10.940;2023-09-18T11:12:10;23.30;99.90
2855;DHT22;1435;49.472;10.940;2023-09-18T11:17:34;23.30;99.90
2855;DHT22;1435;49.472;10.940;2023-09-18T11:22:36;23.20;99.90
2855;DHT22;1435;49.472;10.940;2023-09-18T11:27:52;23.20;99.90
2855;DHT22;1435;49.472;10.940;2023-09-18T11:32:57;23.20;99.90
2855;DHT22;1435;49.472;10.940;2023-09-18T11:38:07;23.10;99.90
2855;DHT22;1435;49.472;10.940;2023-09-18T11:43:23;23.10;99.90
2855;DHT22;1435;49.472;10.940;2023-09-18T11:48:28;23.00;99.90
2855;DHT22;1435;49.472;10.940;2023-09-18T11:53:34;23.00;99.90
2855;DHT22;1435;49.472;10.940;2023-09-18T11:58:45;23.00;99.90
2855;DHT22;1435;49.472;10.940;2023-09-18T12:03:54;23.00;99.90
2855;DHT22;1435;49.472;10.940;2023-09-18T12:08:56;23.00;99.90
2855;DHT22;1435;49.472;10.940;2023-09-18T12:13:57;23.00;99.90
2855;DHT22;1435;49.472;10.940;2023-09-18T12:19:00;23.00;99.90
2855;DHT22;1435;49.472;10.940;2023-09-18T12:24:06;22.90;99.90
2855;DHT22;1435;49.472;10.940;2023-09-18T12:29:14;22.90;99.90
2855;DHT22;1435;49.472;10.940;2023-09-18T12:34:18;22.80;99.90
2855;DHT22;1435;49.472;10.940;2023-09-18T12:39:21;22.70;99.90
2855;DHT22;1435;49.472;10.940;2023-09-18T12:44:23;22.60;99.90
2855;DHT22;1435;49.472;10.940;2023-09-18T12:49:30;22.50;99.90
2855;DHT22;1435;49.472;10.940;2023-09-18T12:54:39;22.50;99.90
2855;DHT22;1435;49.472;10.940;2023-09-18T12:59:41;22.40;99.90
2855;DHT22;1435;49.472;10.940;2023-09-18T13:04:51;22.20;99.90
2855;DHT22;1435;49.472;10.940;2023-09-18T13:09:59;22.20;99.90
2855;DHT22;1435;49.472;10.940;2023-09-18T13:15:03;22.10;99.90
2855;DHT22;1435;49.472;10.940;2023-09-18T13:20:12;22.10;99.90
2855;DHT22;1435;49.472;10.940;2023-09-18T13:25:19;21.90;99.90
2855;DHT22;1435;49.472;10.940;2023-09-18T13:30:22;21.80;99.90
2855;DHT22;1435;49.472;10.940;2023-09-18T13:35:26;21.70;99.90
2855;DHT22;1435;49.472;10.940;2023-09-18T13:40:27;21.60;99.90
2855;DHT22;1435;49.472;10.940;2023-09-18T13:45:29;21.50;99.90
2855;DHT22;1435;49.472;10.940;2023-09-18T13:50:33;21.50;99.90
2855;DHT22;1435;49.472;10.940;2023-09-18T13:55:35;21.40;99.90
2855;DHT22;1435;49.472;10.940;2023-09-18T14:00:37;21.30;99.90
2855;DHT22;1435;49.472;10.940;2023-09-18T14:05:40;21.30;99.90
2855;DHT22;1435;49.472;10.940;2023-09-18T14:10:41;21.30;99.90
2855;DHT22;1435;49.472;10.940;2023-09-18T14:15:43;21.20;99.90
2855;DHT22;1435;49.472;10.940;2023-09-18T14:20:46;21.10;99.90
2855;DHT22;1435;49.472;10.940;2023-09-18T14:25:48;21.10;99.90
2855;DHT22;1435;49.472;10.940;2023-09-18T14:30:51;21.10;99.90
2855;DHT22;1435;49.472;10.940;2023-09-18T14:35:54;21.00;99.90
2855;DHT22;1435;49.472;10.940;2023-09-18T14:40:56;20.90;99.90
2855;DHT22;1435;49.472;10.940;2023-09-18T14:46:01;20.80;99.90
2855;DHT22;1435;49.472;10.940;2023-09-18T14:51:03;20.80;99.90
2855;DHT22;1435;49.472;10.940;2023-09-18T14:56:07;20.70;99.90
2855;DHT22;1435;49.472;10.940;2023-09-18T15:01:09;20.70;99.90
2855;DHT22;1435;49.472;10.940;2023-09-18T15:06:12;20.70;99.90
2855;DHT22;1435;49.472;10.940;2023-09-18T15:11:14;20.70;99.90
2855;DHT22;1435;49.472;10.940;2023-09-18T15:16:17;20.70;99.90
2855;DHT22;1435;49.472;10.940;2023-09-18T15:21:20;20.60;99.90
2855;DHT22;1435;49.472;10.940;2023-09-18T15:26:22;20.60;99.90
2855;DHT22;1435;49.472;10.940;2023-09-18T15:31:24;20.70;99.90
2855;DHT22;1435;49.472;10.940;2023-09-18T15:36:27;20.70;99.90
2855;DHT22;1435;49.472;10.940;2023-09-18T15:41:29;20.70;99.90
2855;DHT22;1435;49.472;10.940;2023-09-18T15:46:31;20.70;99.90
2855;DHT22;1435;49.472;10.940;2023-09-18T15:51:34;20.70;99.90
2855;DHT22;1435;49.472;10.940;2023-09-18T15:56:35;20.70;99.90
2855;DHT22;1435;49.472;10.940;2023-09-18T16:01:38;20.70;99.90
2855;DHT22;1435;49.472;10.940;2023-09-18T16:06:41;20.70;99.90
2855;DHT22;1435;49.472;10.940;2023-09-18T16:11:44;20.60;99.90
2855;DHT22;1435;49.472;10.940;2023-09-18T16:16:46;20.60;99.90
2855;DHT22;1435;49.472;10.940;2023-09-18T16:21:49;20.60;99.90
2855;DHT22;1435;49.472;10.940;2023-09-18T16:26:52;20.60;99.90
2855;DHT22;1435;49.472;10.940;2023-09-18T16:31:53;20.60;99.90
2855;DHT22;1435;49.472;10.940;2023-09-18T16:36:56;20.60;99.90
2855;DHT22;1435;49.472;10.940;2023-09-18T16:41:58;20.60;99.90
2855;DHT22;1435;49.472;10.940;2023-09-18T16:47:00;20.50;99.90
2855;DHT22;1435;49.472;10.940;2023-09-18T16:52:04;20.50;99.90
2855;DHT22;1435;49.472;10.940;2023-09-18T16:57:06;20.50;99.90
2855;DHT22;1435;49.472;10.940;2023-09-18T17:02:08;20.50;99.90
2855;DHT22;1435;49.472;10.940;2023-09-18T17:07:11;20.40;99.90
2855;DHT22;1435;49.472;10.940;2023-09-18T17:12:12;20.40;99.90
2855;DHT22;1435;49.472;10.940;2023-09-18T17:17:15;20.40;99.90
2855;DHT22;1435;49.472;10.940;2023-09-18T17:22:18;20.40;99.90
2855;DHT22;1435;49.472;10.940;2023-09-18T17:27:20;20.20;99.90
2855;DHT22;1435;49.472;10.940;2023-09-18T17:32:22;20.20;99.90
2855;DHT22;1435;49.472;10.940;2023-09-18T17:37:25;20.20;99.90
2855;DHT22;1435;49.472;10.940;2023-09-18T17:42:27;20.20;99.90
2855;DHT22;1435;49.472;10.940;2023-09-18T17:47:29;20.10;99.90
2855;DHT22;1435;49.472;10.940;2023-09-18T17:52:32;20.10;99.90
2855;DHT22;1435;49.472;10.940;2023-09-18T17:57:34;20.00;99.90
2855;DHT22;1435;49.472;10.940;2023-09-18T18:02:38;20.00;99.90
2855;DHT22;1435;49.472;10.940;2023-09-18T18:07:41;19.90;99.90
2855;DHT22;1435;49.472;10.940;2023-09-18T18:12:43;19.80;99.90
2855;DHT22;1435;49.472;10.940;2023-09-18T18:17:45;19.80;99.90
2855;DHT22;1435;49.472;10.940;2023-09-18T18:22:49;19.70;99.90
2855;DHT22;1435;49.472;10.940;2023-09-18T18:27:51;19.60;99.90
2855;DHT22;1435;49.472;10.940;2023-09-18T18:32:53;19.50;99.90
2855;DHT22;1435;49.472;10.940;2023-09-18T18:37:56;19.50;99.90
2855;DHT22;1435;49.472;10.940;2023-09-18T18:42:58;19.40;99.90
2855;DHT22;1435;49.472;10.940;2023-09-18T18:48:02;19.40;99.90
2855;DHT22;1435;49.472;10.940;2023-09-18T18:53:05;19.40;99.90
2855;DHT22;1435;49.472;10.940;2023-09-18T18:58:08;19.30;99.90
2855;DHT22;1435;49.472;10.940;2023-09-18T19:03:09;19.20;99.90
2855;DHT22;1435;49.472;10.940;2023-09-18T19:08:12;19.20;99.90
2855;DHT22;1435;49.472;10.940;2023-09-18T19:13:14;19.10;99.90
2855;DHT22;1435;49.472;10.940;2023-09-18T19:18:16;19.00;99.90
2855;DHT22;1435;49.472;10.940;2023-09-18T19:23:19;18.90;99.90
2855;DHT22;1435;49.472;10.940;2023-09-18T19:28:21;18.90;99.90
2855;DHT22;1435;49.472;10.940;2023-09-18T19:33:25;18.80;99.90
2855;DHT22;1435;49.472;10.940;2023-09-18T19:38:29;18.70;99.90
2855;DHT22;1435;49.472;10.940;2023-09-18T19:43:31;18.70;99.90
2855;DHT22;1435;49.472;10.940;2023-09-18T19:48:33;18.60;99.90
2855;DHT22;1435;49.472;10.940;2023-09-18T19:53:36;18.50;99.90
2855;DHT22;1435;49.472;10.940;2023-09-18T19:58:38;18.40;99.90
2855;DHT22;1435;49.472;10.940;2023-09-18T20:03:39;18.30;99.90
2855;DHT22;1435;49.472;10.940;2023-09-18T20:08:42;18.30;99.90
2855;DHT22;1435;49.472;10.940;2023-09-18T20:13:44;18.30;99.90
2855;DHT22;1435;49.472;10.940;2023-09-18T20:18:47;18.30;99.90
2855;DHT22;1435;49.472;10.940;2023-09-18T20:23:51;18.30;99.90
2855;DHT22;1435;49.472;10.940;2023-09-18T20:28:53;18.20;99.90
2855;DHT22;1435;49.472;10.940;2023-09-18T20:33:55;18.20;99.90
2855;DHT22;1435;49.472;10.940;2023-09-18T20:38:58;18.10;99.90
2855;DHT22;1435;49.472;10.940;2023-09-18T20:44:00;18.10;99.90
2855;DHT22;1435;49.472;10.940;2023-09-18T20:49:02;18.10;99.90
2855;DHT22;1435;49.472;10.940;2023-09-18T20:54:05;18.10;99.90
2855;DHT22;1435;49.472;10.940;2023-09-18T20:59:08;18.20;99.90
2855;DHT22;1435;49.472;10.940;2023-09-18T21:04:12;18.20;99.90
2855;DHT22;1435;49.472;10.940;2023-09-18T21:09:15;18.20;99.90
2855;DHT22;1435;49.472;10.940;2023-09-18T21:14:18;18.20;99.90
2855;DHT22;1435;49.472;10.940;2023-09-18T21:19:20;18.20;99.90
2855;DHT22;1435;49.472;10.940;2023-09-18T21:24:23;18.30;99.90
2855;DHT22;1435;49.472;10.940;2023-09-18T21:29:25;18.30;99.90
2855;DHT22;1435;49.472;10.940;2023-09-18T21:34:27;18.30;99.90
2855;DHT22;1435;49.472;10.940;2023-09-18T21:39:30;18.30;99.90
2855;DHT22;1435;49.472;10.940;2023-09-18T21:44:31;18.40;99.90
2855;DHT22;1435;49.472;10.940;2023-09-18T21:49:34;18.30;99.90
2855;DHT22;1435;49.472;10.940;2023-09-18T21:54:38;18.30;99.90
2855;DHT22;1435;49.472;10.940;2023-09-18T21:59:40;18.30;99.90
2855;DHT22;1435;49.472;10.940;2023-09-18T22:04:42;18.30;99.90
2855;DHT22;1435;49.472;10.940;2023-09-18T22:09:46;18.30;99.90
2855;DHT22;1435;49.472;10.940;2023-09-18T22:14:52;18.30;99.90
2855;DHT22;1435;49.472;10.940;2023-09-18T22:19:54;18.20;99.90
2855;DHT22;1435;49.472;10.940;2023-09-18T22:24:57;18.20;99.90
2855;DHT22;1435;49.472;10.940;2023-09-18T22:30:00;18.20;99.90
2855;DHT22;1435;49.472;10.940;2023-09-18T22:35:02;18.10;99.90
2855;DHT22;1435;49.472;10.940;2023-09-18T22:56:26;18.00;99.90
2855;DHT22;1435;49.472;10.940;2023-09-18T23:01:28;18.00;99.90
2855;DHT22;1435;49.472;10.940;2023-09-18T23:06:31;18.00;99.90
2855;DHT22;1435;49.472;10.940;2023-09-18T23:11:35;17.90;99.90
2855;DHT22;1435;49.472;10.940;2023-09-18T23:16:38;17.90;99.90
2855;DHT22;1435;49.472;10.940;2023-09-18T23:21:39;17.80;99.90
2855;DHT22;1435;49.472;10.940;2023-09-18T23:26:42;17.80;99.90
2855;DHT22;1435;49.472;10.940;2023-09-18T23:31:48;17.80;99.90
2855;DHT22;1435;49.472;10.940;2023-09-18T23:36:50;17.70;99.90
2855;DHT22;1435;49.472;10.940;2023-09-18T23:41:55;17.70;99.90
2855;DHT22;1435;49.472;10.940;2023-09-18T23:47:00;17.70;99.90
2855;DHT22;1435;49.472;10.940;2023-09-18T23:52:02;17.70;99.90
2855;DHT22;1435;49.472;10.940;2023-09-18T23:57:05;17.80;99.90
